Alpena, Michigan
Current Conditions -  °F | °C
As of 8:54 AM on Thursday 30 Oct 2014 (Local Time) from KAPN Reporting Station
Overcast Overcast  
Wind Chill: 30°   Ceiling: 6500
Heat Index: 34°   Visibility: 10mi
Dew Point: 32°   Wind: 5mph
Humidity: 92%   Direction: 240°WSW
Pressure: 30.1"   Gusts: NA
Location:  45.06°N, 83.44°W
Report Text: KAPN 301254Z AUTO 24004KT 10SM OVC065 01/00 A3010 RMK AO2 SLP199 T00110000 TSNO
Loading
Personal Weather Stations






























Interactive Weather Map
Tropical Storm Tracking
New forecast layout! Learn more

10-Day Weather Forecast

Advertisements
Track Severe Weather on mobile